createdAt,value
2019-03-18T00:02:28.201Z,97550.30
2019-03-18T00:06:33.092Z,97545.56
2019-03-18T00:10:37.962Z,97548.12
2019-03-18T00:14:42.853Z,97558.23
2019-03-18T00:18:47.743Z,97558.66
2019-03-18T00:22:52.631Z,97574.63
2019-03-18T00:26:57.520Z,97582.05
2019-03-18T00:31:02.405Z,97583.83
2019-03-18T00:35:07.463Z,97598.94
2019-03-18T00:39:12.359Z,97601.13
2019-03-18T00:43:17.249Z,97602.89
2019-03-18T00:47:22.140Z,97596.03
2019-03-18T00:51:27.016Z,97598.69
2019-03-18T00:55:31.921Z,97597.47
2019-03-18T00:59:36.810Z,97600.05
2019-03-18T01:03:41.698Z,97596.62
2019-03-18T01:07:46.623Z,97599.30
2019-03-18T01:11:51.501Z,97603.70
2019-03-18T01:15:56.388Z,97594.25
2019-03-18T01:20:01.281Z,97585.20
2019-03-18T01:24:06.173Z,97589.52
2019-03-18T01:28:11.137Z,97586.51
2019-03-18T01:32:16.007Z,97579.42
2019-03-18T01:36:20.904Z,97580.82
2019-03-18T01:40:25.798Z,97589.63
2019-03-18T01:44:30.689Z,97591.03
2019-03-18T01:48:35.581Z,97588.58
2019-03-18T01:52:40.453Z,97592.55
2019-03-18T01:56:45.347Z,97596.42
2019-03-18T02:00:50.243Z,97594.69
2019-03-18T02:04:55.129Z,97595.62
2019-03-18T02:09:00.028Z,97593.50
2019-03-18T02:13:04.905Z,97594.37
2019-03-18T02:17:10.764Z,97597.45
2019-03-18T02:21:15.655Z,97605.28
2019-03-18T02:25:20.542Z,97607.82
2019-03-18T02:29:25.428Z,97612.98
2019-03-18T02:33:30.330Z,97613.35
2019-03-18T02:37:35.203Z,97619.80
2019-03-18T02:41:40.115Z,97624.53
2019-03-18T02:45:44.985Z,97628.28
2019-03-18T02:49:49.882Z,97631.92
2019-03-18T02:53:54.760Z,97635.80
2019-03-18T02:57:59.664Z,97635.41
2019-03-18T03:02:04.681Z,97631.92
2019-03-18T03:06:09.567Z,97634.49
2019-03-18T03:10:14.831Z,97629.67
2019-03-18T03:14:19.759Z,97637.41
2019-03-18T03:18:24.643Z,97634.75
2019-03-18T03:22:29.526Z,97640.17
2019-03-18T03:26:34.417Z,97640.44
2019-03-18T03:30:39.310Z,97641.51
2019-03-18T03:34:44.206Z,97642.61
2019-03-18T03:38:49.078Z,97644.32
2019-03-18T03:42:53.965Z,97653.08
2019-03-18T03:46:58.854Z,97660.48
2019-03-18T03:51:03.730Z,97663.06
2019-03-18T03:55:13.231Z,97662.72
2019-03-18T03:59:18.359Z,97672.45
2019-03-18T04:03:37.678Z,97672.84
2019-03-18T04:07:30.806Z,97684.33
2019-03-18T04:11:35.691Z,97678.98
2019-03-18T04:15:40.652Z,97681.11
2019-03-18T04:19:45.548Z,97691.89
2019-03-18T04:23:50.435Z,97698.67
2019-03-18T04:27:55.329Z,97695.11
2019-03-18T04:32:00.208Z,97710.57
2019-03-18T04:36:06.178Z,97710.20
2019-03-18T04:40:11.608Z,97720.15
2019-03-18T04:44:16.495Z,97717.58
2019-03-18T04:48:21.383Z,97728.88
2019-03-18T04:52:27.231Z,97739.74
2019-03-18T04:56:32.119Z,97740.67
2019-03-18T05:00:37.008Z,97749.00
2019-03-18T05:04:41.898Z,97739.32
2019-03-18T05:08:46.787Z,97736.97
2019-03-18T05:12:51.682Z,97735.00
2019-03-18T05:16:56.570Z,97737.22
2019-03-18T05:21:01.507Z,97733.80
2019-03-18T05:25:08.895Z,97736.45
2019-03-18T05:29:13.795Z,97745.36
2019-03-18T05:33:18.662Z,97746.64
2019-03-18T05:37:23.542Z,97743.38
2019-03-18T05:41:28.437Z,97753.89
2019-03-18T05:45:33.326Z,97759.87
2019-03-18T05:49:38.224Z,97767.27
2019-03-18T05:53:43.106Z,97771.20
2019-03-18T05:57:48.003Z,97785.54
2019-03-18T06:01:52.896Z,97785.98
2019-03-18T06:05:57.785Z,97799.48
2019-03-18T06:10:02.735Z,97792.78
2019-03-18T06:14:07.641Z,97806.00
2019-03-18T06:18:12.531Z,97801.43
2019-03-18T06:22:17.417Z,97790.81
2019-03-18T06:26:22.304Z,97791.53
2019-03-18T06:30:27.187Z,97803.78
2019-03-18T06:34:32.070Z,97804.42
2019-03-18T06:38:36.960Z,97808.61
2019-03-18T06:42:41.856Z,97816.28
2019-03-18T06:46:46.747Z,97824.81
2019-03-18T06:50:51.623Z,97823.56
2019-03-18T06:54:56.514Z,97824.38
2019-03-18T06:59:01.407Z,97834.31
2019-03-18T07:03:06.310Z,97845.09
2019-03-18T07:07:11.205Z,97845.82
2019-03-18T07:11:16.079Z,97850.63
2019-03-18T07:15:20.969Z,97857.69
2019-03-18T07:19:25.866Z,97852.53
2019-03-18T07:23:30.755Z,97853.83
2019-03-18T07:27:35.655Z,97868.64
2019-03-18T07:31:40.527Z,97864.83
2019-03-18T07:35:45.423Z,97877.38
2019-03-18T07:39:50.313Z,97879.58
2019-03-18T07:43:55.204Z,97884.27
2019-03-18T07:48:00.097Z,97891.08
2019-03-18T07:52:04.979Z,97904.92
2019-03-18T07:56:09.872Z,97913.94
2019-03-18T08:00:17.716Z,97921.11
2019-03-18T08:04:22.611Z,97929.45
2019-03-18T08:08:27.582Z,97941.31
2019-03-18T08:12:32.460Z,97947.27
2019-03-18T08:16:37.345Z,97957.77
2019-03-18T08:20:42.331Z,97968.94
2019-03-18T08:24:47.172Z,97970.97
2019-03-18T08:28:52.075Z,97978.66
2019-03-18T08:32:56.960Z,97989.69
2019-03-18T08:37:01.864Z,97990.48
2019-03-18T08:41:06.754Z,98004.58
2019-03-18T08:45:15.356Z,98007.73
2019-03-18T08:49:21.040Z,98005.25
2019-03-18T08:53:25.928Z,98014.67
2019-03-18T08:57:30.818Z,98022.03
2019-03-18T09:01:35.704Z,98024.29
2019-03-18T09:05:40.588Z,98031.06
2019-03-18T09:09:45.472Z,98027.97
2019-03-18T09:13:50.360Z,98033.28
2019-03-18T09:17:56.226Z,98041.42
2019-03-18T09:22:01.110Z,98044.89
2019-03-18T09:26:06.017Z,98061.59
2019-03-18T09:30:13.741Z,98058.23
2019-03-18T09:34:18.623Z,98063.70
2019-03-18T09:38:23.589Z,98059.56
2019-03-18T09:42:28.416Z,98059.38
2019-03-18T09:46:33.302Z,98059.94
2019-03-18T09:50:38.194Z,98066.56
2019-03-18T09:54:44.167Z,98071.30
2019-03-18T09:58:49.048Z,98071.92
2019-03-18T10:02:53.935Z,98074.34
2019-03-18T10:06:58.836Z,98078.42
2019-03-18T10:11:03.714Z,98086.95
2019-03-18T10:15:21.256Z,98090.81
2019-03-18T10:19:33.425Z,98099.02
2019-03-18T10:23:32.727Z,98100.12
2019-03-18T10:27:38.018Z,98104.55
2019-03-18T10:31:44.051Z,98102.75
2019-03-18T10:35:48.941Z,98097.74
2019-03-18T10:39:53.817Z,98087.20
2019-03-18T10:43:58.749Z,98087.60
2019-03-18T10:48:03.627Z,98090.80
2019-03-18T10:52:08.514Z,98089.27
2019-03-18T10:56:13.420Z,98089.20
2019-03-18T11:00:19.294Z,98088.63
2019-03-18T11:04:24.214Z,98089.75
2019-03-18T11:08:29.109Z,98088.61
2019-03-18T11:12:34.025Z,98098.45
2019-03-18T11:16:38.917Z,98113.23
2019-03-18T11:20:43.791Z,98139.88
2019-03-18T11:24:48.686Z,98162.91
2019-03-18T11:28:53.584Z,98164.45
2019-03-18T11:32:58.479Z,98167.17
2019-03-18T11:37:03.379Z,98160.47
2019-03-18T11:41:08.264Z,98150.45
2019-03-18T11:45:14.892Z,98140.61
2019-03-18T11:49:19.778Z,98129.42
2019-03-18T11:53:24.676Z,98120.87
2019-03-18T11:57:29.563Z,98118.06
2019-03-18T12:01:34.438Z,98126.97
2019-03-18T12:05:39.334Z,98147.81
2019-03-18T12:09:44.224Z,98158.77
2019-03-18T12:13:49.117Z,98159.44
2019-03-18T12:17:54.193Z,98152.03
2019-03-18T12:21:59.072Z,98151.76
2019-03-18T12:26:03.972Z,98161.40
2019-03-18T12:30:20.204Z,98149.45
2019-03-18T12:34:25.099Z,98137.23
2019-03-18T12:38:31.640Z,98140.79
2019-03-18T12:42:36.530Z,98158.75
2019-03-18T12:46:41.416Z,98190.20
2019-03-18T12:50:55.898Z,98184.16
2019-03-18T12:54:53.862Z,98181.34
2019-03-18T12:58:58.756Z,98179.25
2019-03-18T13:03:03.695Z,98178.77
2019-03-18T13:07:08.587Z,98172.19
2019-03-18T13:11:13.478Z,98166.09
2019-03-18T13:15:19.206Z,98174.00
2019-03-18T13:19:24.096Z,98170.60
2019-03-18T13:23:28.971Z,98168.92
2019-03-18T13:27:33.879Z,98163.19
2019-03-18T13:31:38.768Z,98154.88
2019-03-18T13:35:43.656Z,98155.00
2019-03-18T13:39:48.557Z,98159.13
2019-03-18T13:43:53.439Z,98152.45
2019-03-18T13:47:58.345Z,98149.97
2019-03-18T13:52:03.243Z,98136.13
2019-03-18T13:56:08.130Z,98145.86
2019-03-18T14:00:20.528Z,98143.06
2019-03-18T14:04:25.402Z,98136.01
2019-03-18T14:08:30.298Z,98142.83
2019-03-18T14:12:37.072Z,98140.06
2019-03-18T14:16:41.793Z,98143.42
2019-03-18T14:20:46.711Z,98148.48
2019-03-18T14:24:51.565Z,98146.14
2019-03-18T14:28:56.454Z,98151.08
2019-03-18T14:33:01.350Z,98142.66
2019-03-18T14:37:06.244Z,98139.89
2019-03-18T14:41:11.135Z,98151.58
2019-03-18T14:45:25.533Z,98154.64
2019-03-18T14:49:30.397Z,98160.08
2019-03-18T14:53:35.292Z,98163.48
2019-03-18T14:57:40.186Z,98165.34
2019-03-18T15:01:45.079Z,98204.67
2019-03-18T15:05:49.964Z,98242.28
2019-03-18T15:09:54.838Z,98234.59
2019-03-18T15:13:59.735Z,98211.42
2019-03-18T15:18:04.622Z,98214.56
2019-03-18T15:22:09.508Z,98223.20
2019-03-18T15:26:14.399Z,98231.38
2019-03-18T15:30:20.316Z,98229.02
2019-03-18T15:34:25.218Z,98208.81
2019-03-18T15:38:30.095Z,98210.87
2019-03-18T15:42:34.985Z,98210.12
2019-03-18T15:46:39.876Z,98202.50
2019-03-18T15:50:44.751Z,98205.13
2019-03-18T15:54:53.951Z,98208.30
2019-03-18T15:58:56.292Z,98208.91
2019-03-18T16:03:01.379Z,98206.08
2019-03-18T16:07:06.267Z,98204.71
2019-03-18T16:11:11.140Z,98208.82
2019-03-18T16:15:18.967Z,98216.11
2019-03-18T16:19:24.846Z,98215.66
2019-03-18T16:23:29.716Z,98219.13
2019-03-18T16:27:34.623Z,98223.54
2019-03-18T16:31:39.494Z,98223.54
2019-03-18T16:35:44.387Z,98235.29
2019-03-18T16:39:49.277Z,98241.13
2019-03-18T16:43:54.164Z,98240.40
2019-03-18T16:47:59.060Z,98246.16
2019-03-18T16:52:03.930Z,98253.75
2019-03-18T16:56:08.823Z,98261.40
2019-03-18T17:00:16.759Z,98265.06
2019-03-18T17:04:21.648Z,98280.38
2019-03-18T17:08:26.540Z,98288.77
2019-03-18T17:12:31.420Z,98297.97
2019-03-18T17:16:36.313Z,98299.80
2019-03-18T17:20:41.190Z,98301.02
2019-03-18T17:24:48.897Z,98302.99
2019-03-18T17:28:53.728Z,98314.02
2019-03-18T17:32:58.618Z,98324.16
2019-03-18T17:37:03.505Z,98326.52
2019-03-18T17:41:09.427Z,98337.45
2019-03-18T17:45:15.603Z,98342.35
2019-03-18T17:49:20.476Z,98346.77
2019-03-18T17:53:25.364Z,98345.06
2019-03-18T17:57:30.270Z,98352.13
2019-03-18T18:01:35.151Z,98356.09
2019-03-18T18:05:40.056Z,98359.20
2019-03-18T18:09:45.914Z,98365.33
2019-03-18T18:13:50.804Z,98371.02
2019-03-18T18:17:55.696Z,98380.17
2019-03-18T18:22:00.582Z,98382.78
2019-03-18T18:26:05.483Z,98381.21
2019-03-18T18:30:14.999Z,98392.59
2019-03-18T18:34:19.896Z,98394.05
2019-03-18T18:38:24.799Z,98407.08
2019-03-18T18:42:29.698Z,98421.91
2019-03-18T18:46:34.609Z,98430.30
2019-03-18T18:50:39.488Z,98432.13
2019-03-18T18:54:44.368Z,98444.33
2019-03-18T18:58:49.259Z,98443.06
2019-03-18T19:02:54.148Z,98445.19
2019-03-18T19:06:59.051Z,98451.19
2019-03-18T19:11:03.938Z,98453.31
2019-03-18T19:15:14.354Z,98462.00
2019-03-18T19:19:19.300Z,98469.78
2019-03-18T19:23:24.140Z,98471.55
2019-03-18T19:27:29.031Z,98466.45
2019-03-18T19:31:33.924Z,98476.46
2019-03-18T19:35:38.821Z,98475.23
2019-03-18T19:39:43.722Z,98480.59
2019-03-18T19:43:48.617Z,98481.56
2019-03-18T19:47:53.735Z,98485.02
2019-03-18T19:51:59.618Z,98492.81
2019-03-18T19:56:04.508Z,98491.17
2019-03-18T20:00:21.088Z,98500.25
2019-03-18T20:04:25.986Z,98513.69
2019-03-18T20:08:30.882Z,98511.09
2019-03-18T20:12:35.775Z,98516.73
2019-03-18T20:16:40.676Z,98516.75
2019-03-18T20:20:45.571Z,98521.48
2019-03-18T20:24:50.460Z,98524.09
2019-03-18T20:28:55.368Z,98539.69
2019-03-18T20:33:00.270Z,98540.11
2019-03-18T20:37:05.248Z,98533.22
2019-03-18T20:41:10.135Z,98534.52
2019-03-18T20:45:17.424Z,98549.58
2019-03-18T20:49:22.316Z,98547.82
2019-03-18T20:53:27.224Z,98552.06
2019-03-18T20:57:32.114Z,98560.22
2019-03-18T21:01:37.010Z,98565.33
2019-03-18T21:05:42.981Z,98570.49
2019-03-18T21:09:47.884Z,98568.79
2019-03-18T21:13:57.316Z,98567.96
2019-03-18T21:18:00.338Z,98577.55
2019-03-18T21:22:05.240Z,98585.78
2019-03-18T21:26:10.138Z,98600.93
2019-03-18T21:30:20.403Z,98600.95
2019-03-18T21:34:25.300Z,98597.50
2019-03-18T21:38:30.186Z,98599.20
2019-03-18T21:42:35.158Z,98600.96
2019-03-18T21:46:40.052Z,98608.70
2019-03-18T21:50:44.953Z,98610.83
2019-03-18T21:54:49.868Z,98629.82
2019-03-18T21:58:54.767Z,98619.45
2019-03-18T22:02:59.662Z,98632.78
2019-03-18T22:07:04.621Z,98632.28
2019-03-18T22:11:09.520Z,98633.16
2019-03-18T22:15:15.148Z,98634.05
2019-03-18T22:19:20.031Z,98637.95
2019-03-18T22:23:24.932Z,98641.35
2019-03-18T22:27:30.900Z,98642.22
2019-03-18T22:31:35.797Z,98640.49
2019-03-18T22:35:40.698Z,98631.89
2019-03-18T22:39:45.582Z,98631.42
2019-03-18T22:43:50.470Z,98638.25
2019-03-18T22:47:55.361Z,98645.59
2019-03-18T22:52:00.254Z,98650.31
2019-03-18T22:56:05.140Z,98655.47
2019-03-18T23:00:17.011Z,98648.09
2019-03-18T23:04:23.517Z,98653.66
2019-03-18T23:08:28.429Z,98654.11
2019-03-18T23:12:33.324Z,98648.14
2019-03-18T23:16:39.870Z,98649.88
2019-03-18T23:20:44.714Z,98661.94
2019-03-18T23:24:49.602Z,98658.06
2019-03-18T23:28:54.500Z,98662.83
2019-03-18T23:32:59.395Z,98671.02
2019-03-18T23:37:04.283Z,98672.79
2019-03-18T23:41:09.176Z,98675.84
2019-03-18T23:45:14.407Z,98675.00
2019-03-18T23:49:19.300Z,98677.15
2019-03-18T23:53:24.196Z,98686.19
2019-03-18T23:57:29.083Z,98690.47
